createdAt,value
2019-02-14T12:36:58.176Z,5006.25
2019-02-14T12:37:58.179Z,4938.75
2019-02-14T12:38:58.182Z,4893.75
2019-02-14T12:39:58.184Z,4995.00
2019-02-14T12:40:58.183Z,4966.88
2019-02-14T12:41:58.195Z,4708.13
2019-02-14T12:42:58.189Z,4910.63
2019-02-14T12:43:58.196Z,4876.88
2019-02-14T12:44:58.198Z,4809.38
2019-02-14T12:45:58.205Z,4713.75
2019-02-14T12:46:58.209Z,4848.75
2019-02-14T12:47:58.216Z,4522.50
2019-02-14T12:48:58.222Z,4421.25
2019-02-14T12:49:58.227Z,4455.00
2019-02-14T12:50:58.235Z,4466.25
2019-02-14T12:51:58.242Z,4342.50
2019-02-14T12:52:58.247Z,4275.00
2019-02-14T12:53:58.258Z,4128.75
2019-02-14T12:54:58.262Z,3864.38
2019-02-14T12:55:58.273Z,2542.50
2019-02-14T12:56:58.278Z,1389.38
2019-02-14T12:57:58.290Z,1226.25
2019-02-14T12:58:58.294Z,1186.88
2019-02-14T12:59:58.304Z,1170.00
2019-02-14T13:00:58.312Z,1181.25
2019-02-14T13:01:58.325Z,1203.75
2019-02-14T13:02:58.377Z,1215.00
2019-02-14T13:03:58.341Z,1226.25
2019-02-14T13:04:58.349Z,1254.38
2019-02-14T13:05:58.362Z,1327.50
2019-02-14T13:06:58.365Z,1423.13
2019-02-14T13:07:58.378Z,1558.13
2019-02-14T13:08:58.382Z,1687.50
2019-02-14T13:09:58.392Z,1704.38
2019-02-14T13:10:58.400Z,2278.13
2019-02-14T13:11:58.411Z,2925.00
2019-02-14T13:12:58.420Z,3206.25
2019-02-14T13:13:58.439Z,2728.13
2019-02-14T13:14:58.437Z,2750.63
2019-02-14T13:15:58.449Z,2874.38
2019-02-14T13:16:58.455Z,2688.75
2019-02-14T13:17:58.470Z,2368.13
2019-02-14T13:18:58.477Z,2244.38
2019-02-14T13:19:58.485Z,2092.50
2019-02-14T13:20:58.491Z,2227.50
2019-02-14T13:21:58.519Z,2205.00
2019-02-14T13:22:58.517Z,1833.75
2019-02-14T13:23:58.526Z,1845.00
2019-02-14T13:24:58.764Z,2008.13
2019-02-14T13:25:58.536Z,1996.88
2019-02-14T13:26:58.543Z,1946.25
2019-02-14T13:27:58.554Z,1918.13
2019-02-14T13:28:58.561Z,1918.13
2019-02-14T13:29:58.571Z,1845.00
2019-02-14T13:30:58.589Z,1816.88
2019-02-14T13:31:58.593Z,1873.13
2019-02-14T13:32:58.596Z,1890.00
2019-02-14T13:33:58.626Z,1991.25
2019-02-14T13:34:58.615Z,2030.63
2019-02-14T13:35:58.634Z,1951.88
2019-02-14T13:37:01.533Z,1873.13
2019-02-14T13:37:58.654Z,1980.00
2019-02-14T13:38:58.674Z,1963.13
2019-02-14T13:39:58.665Z,2036.25
2019-02-14T13:40:58.674Z,2086.88
2019-02-14T13:41:58.687Z,2233.13
2019-02-14T13:42:58.692Z,2683.13
2019-02-14T13:43:58.708Z,2469.38
2019-02-14T13:44:58.716Z,2739.38
2019-02-14T13:45:58.727Z,3060.00
2019-02-14T13:46:58.736Z,2930.63
2019-02-14T13:47:58.746Z,3459.38
2019-02-14T13:48:58.756Z,4140.00
2019-02-14T13:49:58.768Z,4837.50
2019-02-14T13:50:58.774Z,5506.88
2019-02-14T13:51:58.789Z,5512.50
2019-02-14T13:52:58.800Z,4820.63
2019-02-14T13:53:58.809Z,3915.00
2019-02-14T13:54:58.856Z,3195.00
2019-02-14T13:55:58.830Z,2683.13
2019-02-14T13:56:58.838Z,2328.75
2019-02-14T13:57:58.850Z,2278.13
2019-02-14T13:58:58.859Z,2216.25
2019-02-14T13:59:58.874Z,2098.13
2019-02-14T14:00:58.878Z,1923.75
2019-02-14T14:01:58.889Z,1468.13
2019-02-14T14:02:58.901Z,1125.00
2019-02-14T14:03:58.913Z,945.00
2019-02-14T14:04:58.922Z,843.75
2019-02-14T14:05:58.935Z,765.00
2019-02-14T14:06:58.943Z,703.13
2019-02-14T14:07:58.954Z,646.88
2019-02-14T14:08:58.965Z,607.50
2019-02-14T14:09:58.973Z,511.88
2019-02-14T14:10:58.981Z,551.25
2019-02-14T14:11:58.994Z,545.63
2019-02-14T14:12:59.017Z,551.25
2019-02-14T14:13:59.015Z,540.00
2019-02-14T14:14:59.024Z,528.75
2019-02-14T14:15:59.039Z,523.13
2019-02-14T14:16:59.046Z,506.25
2019-02-14T14:17:59.057Z,489.38
2019-02-14T14:19:06.209Z,478.13
2019-02-14T14:19:59.479Z,466.88
2019-02-14T14:20:59.082Z,455.63
2019-02-14T14:21:59.093Z,438.75
2019-02-14T14:22:59.100Z,427.50
2019-02-14T14:23:59.115Z,427.50
2019-02-14T14:24:59.122Z,421.88
2019-02-14T14:25:59.131Z,405.00
2019-02-14T14:26:59.138Z,393.75
2019-02-14T14:27:59.151Z,388.13
2019-02-14T14:28:59.167Z,371.25
2019-02-14T14:29:59.167Z,365.63
2019-02-14T14:30:59.173Z,360.00
2019-02-14T14:31:59.183Z,354.38
2019-02-14T14:32:59.189Z,337.50
2019-02-14T14:33:59.200Z,315.00
2019-02-14T14:34:59.208Z,303.75
2019-02-14T14:35:59.219Z,309.38
2019-02-14T14:36:59.231Z,303.75
2019-02-14T14:37:59.238Z,292.50
2019-02-14T14:38:59.244Z,303.75
2019-02-14T14:39:59.254Z,309.38
2019-02-14T14:40:59.259Z,315.00
2019-02-14T14:41:59.268Z,309.38
2019-02-14T14:42:59.275Z,309.38
2019-02-14T14:43:59.289Z,309.38
2019-02-14T14:44:59.292Z,309.38
2019-02-14T14:46:00.314Z,303.75
2019-02-14T14:46:59.308Z,309.38
2019-02-14T14:47:59.320Z,292.50
2019-02-14T14:48:59.333Z,281.25
2019-02-14T14:49:59.342Z,270.00
2019-02-14T14:50:59.342Z,264.38
2019-02-14T14:51:59.348Z,253.13
2019-02-14T14:52:59.351Z,247.50
2019-02-14T14:53:59.359Z,253.13
2019-02-14T14:54:59.363Z,241.88
2019-02-14T14:55:59.375Z,236.25
2019-02-14T14:56:59.378Z,236.25
2019-02-14T14:57:59.387Z,241.88
2019-02-14T14:58:59.391Z,236.25
2019-02-14T14:59:59.399Z,230.63
2019-02-14T15:00:59.403Z,230.63
2019-02-14T15:01:59.411Z,236.25
2019-02-14T15:02:59.415Z,247.50
2019-02-14T15:03:59.421Z,258.75
2019-02-14T15:04:59.586Z,258.75
2019-02-14T15:05:59.433Z,236.25
2019-02-14T15:06:59.434Z,213.75
2019-02-14T15:07:59.445Z,208.13
2019-02-14T15:08:59.449Z,202.50
2019-02-14T15:09:59.456Z,196.88
2019-02-14T15:10:59.457Z,191.25
2019-02-14T15:11:59.461Z,174.38
2019-02-14T15:12:59.465Z,174.38
2019-02-14T15:13:59.472Z,168.75
2019-02-14T15:14:59.475Z,168.75
2019-02-14T15:15:59.485Z,168.75
2019-02-14T15:16:59.486Z,163.13
2019-02-14T15:17:59.496Z,157.50
2019-02-14T15:18:59.497Z,157.50
2019-02-14T15:19:59.503Z,151.88
2019-02-14T15:20:59.508Z,151.88
2019-02-14T15:21:59.513Z,146.25
2019-02-14T15:22:59.516Z,140.63
2019-02-14T15:23:59.522Z,135.00
2019-02-14T15:24:59.524Z,129.38
2019-02-14T15:25:59.530Z,129.38
2019-02-14T15:26:59.532Z,118.13
2019-02-14T15:27:59.542Z,112.50
2019-02-14T15:28:59.544Z,95.63
2019-02-14T15:29:59.553Z,90.00
2019-02-14T15:30:59.554Z,78.75
2019-02-14T15:31:59.559Z,73.13
2019-02-14T15:32:59.566Z,67.50
2019-02-14T15:33:59.568Z,67.50
2019-02-14T15:34:59.567Z,67.50
2019-02-14T15:35:59.574Z,67.50
2019-02-14T15:36:59.573Z,67.50
2019-02-14T15:37:59.614Z,67.50
2019-02-14T15:38:59.577Z,67.50
2019-02-14T15:40:08.853Z,67.50
2019-02-14T15:40:59.584Z,67.50
2019-02-14T15:41:59.589Z,67.50
2019-02-14T15:42:59.599Z,67.50
2019-02-14T15:43:59.591Z,67.50
2019-02-14T15:44:59.598Z,67.50
2019-02-14T15:45:59.593Z,61.88
2019-02-14T15:46:59.593Z,61.88
2019-02-14T15:47:59.598Z,61.88
2019-02-14T15:48:59.610Z,56.25
2019-02-14T15:49:59.598Z,56.25
2019-02-14T15:50:59.602Z,56.25
2019-02-14T15:51:59.597Z,56.25
2019-02-14T15:52:59.595Z,61.88
2019-02-14T15:53:59.600Z,61.88
2019-02-14T15:54:59.969Z,56.25
2019-02-14T15:55:59.601Z,56.25
2019-02-14T15:56:59.598Z,50.63
2019-02-14T15:57:59.599Z,45.00
2019-02-14T15:58:59.596Z,45.00
2019-02-14T15:59:59.597Z,39.38
2019-02-14T16:00:59.593Z,39.38
2019-02-14T16:01:59.594Z,39.38
2019-02-14T16:02:59.591Z,39.38
2019-02-14T16:03:59.592Z,39.38
2019-02-14T16:04:59.589Z,33.75
2019-02-14T16:05:59.592Z,33.75
2019-02-14T16:06:59.586Z,33.75
2019-02-14T16:08:00.508Z,33.75
2019-02-14T16:08:59.588Z,33.75
2019-02-14T16:10:01.047Z,33.75
2019-02-14T16:10:59.582Z,28.13
2019-02-14T16:11:59.582Z,28.13
2019-02-14T16:12:59.579Z,28.13
2019-02-14T16:13:59.578Z,28.13
2019-02-14T16:14:59.573Z,28.13
2019-02-14T16:15:59.578Z,28.13
2019-02-14T16:16:59.572Z,22.50
2019-02-14T16:18:01.627Z,22.50
2019-02-14T16:18:59.569Z,22.50
2019-02-14T16:19:59.781Z,22.50
2019-02-14T16:20:59.563Z,22.50
2019-02-14T16:21:59.563Z,16.88
2019-02-14T16:22:59.558Z,16.88
2019-02-14T16:23:59.556Z,16.88
2019-02-14T16:24:59.551Z,16.88
2019-02-14T16:25:59.565Z,16.88
2019-02-14T16:27:01.166Z,16.88
2019-02-14T16:27:59.549Z,16.88
2019-02-14T16:29:01.608Z,11.25
2019-02-14T16:29:59.543Z,11.25
2019-02-14T16:30:59.547Z,11.25
2019-02-14T16:31:59.536Z,11.25
2019-02-14T16:32:59.531Z,11.25
2019-02-14T16:33:59.529Z,11.25
2019-02-14T16:34:59.525Z,11.25
2019-02-14T16:35:59.528Z,11.25
2019-02-14T16:36:59.527Z,5.63
2019-02-14T16:37:59.518Z,5.63
2019-02-14T16:39:01.414Z,5.63
2019-02-14T16:39:59.514Z,5.63
2019-02-14T16:40:59.810Z,5.63
2019-02-14T16:41:59.507Z,5.63
2019-02-14T16:42:59.505Z,5.63
2019-02-14T16:43:59.500Z,5.63
2019-02-14T16:44:59.495Z,5.63
2019-02-14T16:45:59.494Z,0.00
2019-02-14T16:46:59.737Z,0.00
2019-02-14T16:47:59.489Z,0.00
2019-02-14T16:48:59.483Z,0.00
2019-02-14T16:49:59.483Z,0.00
2019-02-14T16:50:59.478Z,0.00
2019-02-14T16:51:59.473Z,0.00
2019-02-14T16:52:59.472Z,0.00
2019-02-14T16:53:59.468Z,0.00
2019-02-14T16:54:59.464Z,0.00
2019-02-14T16:56:02.178Z,0.00
2019-02-14T16:56:59.456Z,0.00
2019-02-14T16:57:59.477Z,0.00
2019-02-14T16:58:59.447Z,0.00
2019-02-14T16:59:59.444Z,0.00
2019-02-14T17:00:59.442Z,0.00
2019-02-14T17:01:59.435Z,0.00
2019-02-14T17:02:59.439Z,0.00
2019-02-14T17:03:59.426Z,0.00
2019-02-14T17:04:59.425Z,0.00
2019-02-14T17:05:59.417Z,0.00
2019-02-14T17:06:59.419Z,0.00
2019-02-14T17:07:59.413Z,0.00
2019-02-14T17:08:59.413Z,0.00
2019-02-14T17:09:59.401Z,0.00
2019-02-14T17:10:59.700Z,0.00
2019-02-14T17:11:59.401Z,0.00
2019-02-14T17:12:59.394Z,0.00
2019-02-14T17:13:59.408Z,0.00
2019-02-14T17:14:59.385Z,0.00
2019-02-14T17:15:59.377Z,0.00
2019-02-14T17:16:59.378Z,0.00
2019-02-14T17:17:59.369Z,0.00
2019-02-14T17:18:59.366Z,0.00
2019-02-14T17:19:59.362Z,0.00
2019-02-14T17:20:59.361Z,0.00
2019-02-14T17:21:59.353Z,0.00
2019-02-14T17:22:59.351Z,0.00
2019-02-14T17:23:59.344Z,0.00
2019-02-14T17:24:59.342Z,0.00
2019-02-14T17:25:59.367Z,0.00
2019-02-14T17:26:59.333Z,0.00
2019-02-14T17:27:59.323Z,0.00
2019-02-14T17:28:59.322Z,0.00
2019-02-14T17:29:59.326Z,0.00
2019-02-14T17:30:59.316Z,0.00
2019-02-14T17:31:59.307Z,0.00
2019-02-14T17:32:59.305Z,0.00
2019-02-14T17:33:59.298Z,0.00
2019-02-14T17:34:59.295Z,0.00
2019-02-14T17:35:59.286Z,0.00
2019-02-14T17:36:59.285Z,0.00
2019-02-14T17:37:59.276Z,0.00
2019-02-14T17:38:59.274Z,0.00
2019-02-14T17:39:59.270Z,0.00
2019-02-14T17:40:59.565Z,0.00
2019-02-14T17:41:59.258Z,0.00
2019-02-14T17:42:59.255Z,0.00
2019-02-14T17:43:59.254Z,0.00
2019-02-14T17:44:59.251Z,0.00
2019-02-14T17:45:59.242Z,0.00
2019-02-14T17:46:59.237Z,0.00
2019-02-14T17:47:59.228Z,0.00
2019-02-14T17:48:59.228Z,0.00
2019-02-14T17:49:59.218Z,0.00
2019-02-14T17:50:59.214Z,0.00
2019-02-14T17:51:59.210Z,0.00
2019-02-14T17:52:59.207Z,0.00
2019-02-14T17:53:59.201Z,0.00
2019-02-14T17:54:59.196Z,0.00
2019-02-14T17:55:59.186Z,0.00
2019-02-14T17:56:59.184Z,0.00
2019-02-14T17:57:59.176Z,0.00
2019-02-14T17:58:59.173Z,0.00
2019-02-14T17:59:59.168Z,0.00
2019-02-14T18:00:59.197Z,0.00
2019-02-14T18:01:59.157Z,0.00
2019-02-14T18:02:59.154Z,0.00
2019-02-14T18:03:59.145Z,0.00
2019-02-14T18:04:59.142Z,0.00
2019-02-14T18:05:59.134Z,0.00
2019-02-14T18:06:59.131Z,0.00
2019-02-14T18:07:59.126Z,0.00
2019-02-14T18:08:59.123Z,0.00
2019-02-14T18:09:59.115Z,0.00
2019-02-14T18:10:59.412Z,0.00
2019-02-14T18:11:59.105Z,0.00
2019-02-14T18:12:59.101Z,0.00
2019-02-14T18:13:59.125Z,0.00
2019-02-14T18:14:59.090Z,0.00
2019-02-14T18:15:59.080Z,0.00
2019-02-14T18:16:59.081Z,0.00
2019-02-14T18:17:59.068Z,0.00
2019-02-14T18:18:59.065Z,0.00
2019-02-14T18:19:59.061Z,0.00
2019-02-14T18:20:59.057Z,0.00
2019-02-14T18:21:59.053Z,0.00
2019-02-14T18:22:59.045Z,0.00
2019-02-14T18:23:59.035Z,0.00
2019-02-14T18:24:59.033Z,0.00
2019-02-14T18:25:59.025Z,0.00
2019-02-14T18:26:59.021Z,0.00
2019-02-14T18:27:59.012Z,0.00
2019-02-14T18:28:59.011Z,0.00
2019-02-14T18:29:59.001Z,0.00
2019-02-14T18:30:58.997Z,0.00
2019-02-14T18:32:01.621Z,0.00
2019-02-14T18:32:58.989Z,0.00
2019-02-14T18:33:58.982Z,0.00
2019-02-14T18:34:58.977Z,0.00
2019-02-14T18:35:58.967Z,0.00
2019-02-14T18:36:58.964Z,0.00
2019-02-14T18:37:58.955Z,0.00
